createdAt,value
2022-08-29T00:00:36.004Z,19.42
2022-08-29T00:03:08.535Z,48.08
2022-08-29T00:05:37.564Z,18.02
2022-08-29T00:08:05.563Z,16.58
2022-08-29T00:10:33.865Z,19.77
2022-08-29T00:13:01.921Z,13.38
2022-08-29T00:15:29.541Z,13.07
2022-08-29T00:17:57.892Z,24.35
2022-08-29T00:20:30.404Z,8.63
2022-08-29T00:23:01.972Z,9.73
2022-08-29T00:25:29.459Z,11.23
2022-08-29T00:27:57.007Z,9.20
2022-08-29T00:30:25.024Z,19.20
2022-08-29T00:32:52.780Z,12.23
2022-08-29T00:35:22.114Z,8.00
2022-08-29T00:37:51.705Z,8.52
2022-08-29T00:40:21.573Z,9.13
2022-08-29T00:42:49.166Z,9.05
2022-08-29T00:45:17.936Z,24.50
2022-08-29T00:48:17.576Z,25.92
2022-08-29T00:50:48.136Z,9.35
2022-08-29T00:53:17.170Z,23.75
2022-08-29T00:55:50.440Z,7.00
2022-08-29T00:58:36.798Z,12.13
2022-08-29T01:01:05.266Z,8.32
2022-08-29T01:03:34.111Z,8.43
2022-08-29T01:06:02.031Z,9.75
2022-08-29T01:08:30.386Z,8.07
2022-08-29T01:11:16.911Z,8.13
2022-08-29T01:13:46.072Z,6.85
2022-08-29T01:16:14.803Z,12.43
2022-08-29T01:18:43.864Z,8.77
2022-08-29T01:21:23.846Z,8.05
2022-08-29T01:23:54.987Z,9.32
2022-08-29T01:26:23.565Z,9.52
2022-08-29T01:28:52.275Z,8.50
2022-08-29T01:31:37.762Z,7.68
2022-08-29T01:34:11.197Z,7.63
2022-08-29T01:36:48.299Z,8.20
2022-08-29T01:39:15.919Z,6.82
2022-08-29T01:41:43.739Z,11.57
2022-08-29T01:44:13.783Z,9.02
2022-08-29T01:46:41.916Z,7.50
2022-08-29T01:49:11.104Z,9.75
2022-08-29T01:51:39.278Z,7.60
2022-08-29T01:54:07.848Z,7.45
2022-08-29T01:56:36.802Z,8.18
2022-08-29T01:59:05.504Z,7.28
2022-08-29T02:01:37.197Z,8.30
2022-08-29T02:04:06.059Z,11.43
2022-08-29T02:06:33.917Z,8.38
2022-08-29T02:09:01.475Z,12.25
2022-08-29T02:11:29.044Z,8.45
2022-08-29T02:13:58.132Z,14.32
2022-08-29T02:16:27.421Z,13.63
2022-08-29T02:18:55.552Z,11.55
2022-08-29T02:21:24.476Z,9.55
2022-08-29T02:23:52.697Z,10.20
2022-08-29T02:26:21.619Z,9.95
2022-08-29T02:28:50.691Z,8.63
2022-08-29T02:31:18.570Z,8.82
2022-08-29T02:33:46.744Z,8.02
2022-08-29T02:36:14.785Z,7.65
2022-08-29T02:38:42.903Z,6.82
2022-08-29T02:41:14.118Z,10.55
2022-08-29T02:43:42.355Z,13.52
2022-08-29T02:46:13.719Z,33.83
2022-08-29T02:48:41.301Z,15.57
2022-08-29T02:51:22.320Z,16.60
2022-08-29T02:53:50.756Z,7.90
2022-08-29T02:56:20.178Z,11.13
2022-08-29T02:58:49.969Z,17.10
2022-08-29T03:01:18.891Z,8.00
2022-08-29T03:03:46.790Z,12.35
2022-08-29T03:06:14.297Z,10.65
2022-08-29T03:08:41.857Z,10.73
2022-08-29T03:11:09.427Z,10.35
2022-08-29T03:13:37.383Z,13.38
2022-08-29T03:16:05.870Z,11.88
2022-08-29T03:18:34.355Z,11.05
2022-08-29T03:21:01.965Z,10.73
2022-08-29T03:23:29.524Z,10.98
2022-08-29T03:25:57.106Z,11.98
2022-08-29T03:28:25.346Z,10.00
2022-08-29T03:30:52.908Z,10.57
2022-08-29T03:33:20.395Z,11.43
2022-08-29T03:35:47.951Z,9.82
2022-08-29T03:38:15.561Z,11.13
2022-08-29T03:40:43.748Z,10.18
2022-08-29T03:43:12.177Z,8.23
2022-08-29T03:45:39.816Z,10.25
2022-08-29T03:48:07.510Z,9.02
2022-08-29T03:50:35.434Z,10.90
2022-08-29T03:53:03.122Z,10.02
2022-08-29T03:55:30.572Z,8.48
2022-08-29T03:57:58.521Z,8.60
2022-08-29T04:00:25.997Z,8.70
2022-08-29T04:02:55.405Z,10.63
2022-08-29T04:05:23.059Z,27.88
2022-08-29T04:07:52.424Z,15.38
2022-08-29T04:10:33.714Z,16.10
2022-08-29T04:13:01.758Z,8.52
2022-08-29T04:15:30.650Z,9.15
2022-08-29T04:17:59.943Z,7.97
2022-08-29T04:20:29.121Z,20.20
2022-08-29T04:22:57.258Z,17.10
2022-08-29T04:25:25.923Z,10.27
2022-08-29T04:27:54.502Z,14.50
2022-08-29T04:30:23.385Z,12.95
2022-08-29T04:32:50.993Z,10.00
2022-08-29T04:35:18.604Z,7.53
2022-08-29T04:37:46.429Z,8.07
2022-08-29T04:40:15.837Z,8.52
2022-08-29T04:42:43.616Z,11.23
2022-08-29T04:45:12.463Z,9.30
2022-08-29T04:47:40.208Z,9.30
2022-08-29T04:50:08.645Z,10.90
2022-08-29T04:52:37.085Z,10.43
2022-08-29T04:55:05.466Z,9.57
2022-08-29T04:57:33.011Z,10.52
2022-08-29T05:00:00.510Z,9.32
2022-08-29T05:02:29.141Z,9.32
2022-08-29T05:04:56.878Z,9.10
2022-08-29T05:07:25.725Z,9.60
2022-08-29T05:10:01.068Z,10.00
2022-08-29T05:12:29.853Z,10.07
2022-08-29T05:14:57.543Z,11.90
2022-08-29T05:17:25.113Z,10.02
2022-08-29T05:19:53.145Z,9.40
2022-08-29T05:22:21.270Z,11.45
2022-08-29T05:24:49.711Z,9.88
2022-08-29T05:27:19.496Z,9.93
2022-08-29T05:29:48.011Z,8.30
2022-08-29T05:32:17.566Z,8.20
2022-08-29T05:34:45.491Z,8.40
2022-08-29T05:37:15.065Z,9.73
2022-08-29T05:39:43.187Z,24.13
2022-08-29T05:42:12.415Z,16.58
2022-08-29T05:44:40.641Z,49.92
2022-08-29T05:47:09.483Z,19.83
2022-08-29T05:49:37.683Z,17.40
2022-08-29T05:52:06.069Z,11.40
2022-08-29T05:54:34.735Z,12.40
2022-08-29T05:57:02.723Z,13.20
2022-08-29T05:59:30.392Z,13.00
2022-08-29T06:01:58.441Z,17.15
2022-08-29T06:04:25.920Z,10.30
2022-08-29T06:06:53.393Z,9.27
2022-08-29T06:09:20.910Z,15.88
2022-08-29T06:11:49.586Z,10.38
2022-08-29T06:14:17.199Z,12.00
2022-08-29T06:16:44.722Z,11.25
2022-08-29T06:19:12.686Z,10.88
2022-08-29T06:21:40.359Z,9.85
2022-08-29T06:24:08.287Z,9.38
2022-08-29T06:26:36.424Z,11.30
2022-08-29T06:29:08.086Z,9.88
2022-08-29T06:31:35.651Z,8.80
2022-08-29T06:34:04.977Z,9.38
2022-08-29T06:36:33.164Z,9.80
2022-08-29T06:39:07.170Z,10.40
2022-08-29T06:41:35.330Z,8.68
2022-08-29T06:44:03.926Z,11.88
2022-08-29T06:46:33.243Z,10.52
2022-08-29T06:49:01.993Z,15.75
2022-08-29T06:51:33.181Z,29.65
2022-08-29T06:54:04.864Z,8.18
2022-08-29T06:56:37.053Z,9.50
2022-08-29T06:59:05.092Z,7.68
2022-08-29T07:01:33.491Z,8.50
2022-08-29T07:04:02.083Z,9.10
2022-08-29T07:06:30.452Z,7.90
2022-08-29T07:08:58.931Z,14.77
2022-08-29T07:11:27.212Z,9.82
2022-08-29T07:13:57.240Z,9.30
2022-08-29T07:16:26.170Z,10.60
2022-08-29T07:18:54.163Z,11.40
2022-08-29T07:21:22.814Z,9.90
2022-08-29T07:23:51.035Z,9.90
2022-08-29T07:26:29.855Z,9.48
2022-08-29T07:28:58.805Z,8.50
2022-08-29T07:31:30.872Z,9.02
2022-08-29T07:34:02.413Z,9.13
2022-08-29T07:36:31.126Z,8.98
2022-08-29T07:38:58.650Z,8.35
2022-08-29T07:41:26.197Z,8.13
2022-08-29T07:43:53.721Z,7.82
2022-08-29T07:46:21.724Z,7.95
2022-08-29T07:48:49.555Z,8.52
2022-08-29T07:51:18.152Z,8.48
2022-08-29T07:53:46.852Z,8.43
2022-08-29T07:56:16.977Z,8.40
2022-08-29T07:58:44.610Z,9.07
2022-08-29T08:01:20.693Z,9.18
2022-08-29T08:03:50.697Z,8.88
2022-08-29T08:06:19.679Z,9.10
2022-08-29T08:08:47.787Z,11.10
2022-08-29T08:11:15.681Z,7.65
2022-08-29T08:13:43.280Z,8.30
2022-08-29T08:16:13.098Z,7.82
2022-08-29T08:18:42.120Z,7.63
2022-08-29T08:21:09.896Z,7.97
2022-08-29T08:23:38.102Z,8.30
2022-08-29T08:26:06.051Z,8.73
2022-08-29T08:28:33.618Z,8.27
2022-08-29T08:31:05.825Z,7.65
2022-08-29T08:33:35.785Z,7.72
2022-08-29T08:36:13.664Z,7.03
2022-08-29T08:38:41.519Z,7.15
2022-08-29T08:41:27.768Z,6.88
2022-08-29T08:43:55.382Z,7.00
2022-08-29T08:46:31.703Z,7.75
2022-08-29T08:49:01.400Z,7.30
2022-08-29T08:51:31.451Z,7.20
2022-08-29T08:54:00.082Z,12.18
2022-08-29T08:56:40.071Z,7.88
2022-08-29T08:59:22.110Z,7.13
2022-08-29T09:01:58.873Z,7.03
2022-08-29T09:04:34.631Z,7.47
2022-08-29T09:07:04.967Z,7.07
2022-08-29T09:09:32.456Z,6.85
2022-08-29T09:12:06.431Z,7.55
2022-08-29T09:14:56.771Z,7.28
2022-08-29T09:17:47.823Z,7.68
2022-08-29T09:20:29.360Z,7.80
2022-08-29T09:23:09.903Z,7.38
2022-08-29T09:25:37.742Z,6.93
2022-08-29T09:28:09.192Z,6.75
2022-08-29T09:30:37.549Z,6.93
2022-08-29T09:33:09.554Z,6.80
2022-08-29T09:35:41.660Z,7.10
2022-08-29T09:38:18.260Z,6.45
2022-08-29T09:40:48.449Z,6.53
2022-08-29T09:43:27.480Z,6.80
2022-08-29T09:46:04.008Z,6.40
2022-08-29T09:48:35.366Z,6.03
2022-08-29T09:51:11.054Z,5.93
2022-08-29T09:53:38.593Z,5.95
2022-08-29T09:56:10.188Z,6.55
2022-08-29T09:58:40.343Z,6.32
2022-08-29T10:01:12.457Z,6.05
2022-08-29T10:03:43.235Z,6.45
2022-08-29T10:06:18.548Z,5.40
2022-08-29T10:08:56.755Z,8.90
2022-08-29T10:11:28.360Z,6.50
2022-08-29T10:13:57.689Z,6.07
2022-08-29T10:16:25.188Z,5.78
2022-08-29T10:18:55.995Z,6.65
2022-08-29T10:21:32.534Z,5.63
2022-08-29T10:24:15.816Z,6.15
2022-08-29T10:27:01.438Z,5.57
2022-08-29T10:29:50.324Z,6.45
2022-08-29T10:32:36.832Z,6.60
2022-08-29T10:35:22.906Z,6.50
2022-08-29T10:38:02.099Z,5.75
2022-08-29T10:40:29.647Z,5.88
2022-08-29T10:43:14.841Z,5.88
2022-08-29T10:45:51.325Z,5.78
2022-08-29T10:48:26.615Z,6.47
2022-08-29T10:51:12.554Z,5.88
2022-08-29T10:53:43.325Z,5.90
2022-08-29T10:56:10.778Z,6.03
2022-08-29T10:58:57.035Z,6.13
2022-08-29T11:01:24.795Z,6.53
2022-08-29T11:04:17.776Z,5.68
2022-08-29T11:06:48.539Z,6.13
2022-08-29T11:09:42.354Z,6.15
2022-08-29T11:12:22.378Z,5.85
2022-08-29T11:14:58.777Z,5.60
2022-08-29T11:17:29.885Z,6.28
2022-08-29T11:20:11.447Z,6.22
2022-08-29T11:22:47.128Z,6.57
2022-08-29T11:25:16.440Z,6.82
2022-08-29T11:28:04.463Z,5.93
2022-08-29T11:30:47.929Z,5.20
2022-08-29T11:33:27.834Z,5.68
2022-08-29T11:35:55.395Z,5.68
2022-08-29T11:38:22.816Z,5.72
2022-08-29T11:41:26.394Z,6.05
2022-08-29T11:43:39.790Z,5.32
2022-08-29T11:46:08.088Z,6.82
2022-08-29T11:48:46.554Z,5.57
2022-08-29T11:51:36.009Z,5.95
2022-08-29T11:54:24.916Z,5.35
2022-08-29T11:57:02.332Z,6.38
2022-08-29T11:59:51.173Z,4.28
2022-08-29T12:02:30.882Z,4.53
2022-08-29T12:05:10.461Z,4.47
2022-08-29T12:07:49.364Z,4.80
2022-08-29T12:10:25.924Z,4.80
2022-08-29T12:12:57.059Z,4.70
2022-08-29T12:15:25.238Z,5.50
2022-08-29T12:18:01.834Z,4.45
2022-08-29T12:20:41.553Z,6.03
2022-08-29T12:23:15.293Z,4.70
2022-08-29T12:26:15.891Z,5.50
2022-08-29T12:28:44.883Z,4.75
2022-08-29T12:31:18.637Z,4.47
2022-08-29T12:33:46.849Z,6.00
2022-08-29T12:36:32.188Z,4.60
2022-08-29T12:39:06.103Z,5.00
2022-08-29T12:41:52.216Z,4.88
2022-08-29T12:44:23.216Z,4.95
2022-08-29T12:47:11.067Z,4.70
2022-08-29T12:49:51.719Z,4.68
2022-08-29T12:52:35.849Z,4.80
2022-08-29T12:55:20.009Z,4.85
2022-08-29T12:57:48.729Z,5.10
2022-08-29T13:00:24.408Z,5.00
2022-08-29T13:03:15.251Z,5.15
2022-08-29T13:05:43.489Z,5.38
2022-08-29T13:08:13.069Z,4.85
2022-08-29T13:10:42.961Z,4.53
2022-08-29T13:13:18.954Z,4.20
2022-08-29T13:15:50.054Z,5.05
2022-08-29T13:18:18.057Z,4.63
2022-08-29T13:20:47.579Z,5.18
2022-08-29T13:23:26.563Z,4.80
2022-08-29T13:25:54.099Z,5.32
2022-08-29T13:28:30.544Z,4.75
2022-08-29T13:31:07.327Z,4.70
2022-08-29T13:33:37.059Z,4.68
2022-08-29T13:36:23.616Z,4.53
2022-08-29T13:39:11.068Z,4.95
2022-08-29T13:41:38.537Z,5.18
2022-08-29T13:44:06.348Z,5.00
2022-08-29T13:46:34.119Z,4.32
2022-08-29T13:49:02.915Z,4.68
2022-08-29T13:51:30.692Z,5.25
2022-08-29T13:53:58.381Z,4.82
2022-08-29T13:56:32.591Z,4.60
2022-08-29T13:59:00.629Z,4.85
2022-08-29T14:01:29.844Z,4.88
2022-08-29T14:04:01.265Z,4.45
2022-08-29T14:06:35.024Z,4.45
2022-08-29T14:09:03.239Z,4.82
2022-08-29T14:11:30.755Z,5.38
2022-08-29T14:13:58.899Z,4.72
2022-08-29T14:16:26.659Z,4.88
2022-08-29T14:18:54.744Z,4.90
2022-08-29T14:21:22.287Z,4.85
2022-08-29T14:23:51.488Z,4.97
2022-08-29T14:26:19.084Z,6.60
2022-08-29T14:28:48.189Z,5.32
2022-08-29T14:31:15.823Z,5.35
2022-08-29T14:33:43.338Z,10.95
2022-08-29T14:36:12.621Z,5.72
2022-08-29T14:38:40.114Z,6.93
2022-08-29T14:41:07.834Z,5.75
2022-08-29T14:43:39.650Z,6.57
2022-08-29T14:46:10.852Z,5.15
2022-08-29T14:48:38.676Z,5.63
2022-08-29T14:51:06.163Z,5.32
2022-08-29T14:53:37.922Z,4.63
2022-08-29T14:56:37.211Z,5.25
2022-08-29T14:59:06.980Z,6.03
2022-08-29T15:01:34.467Z,5.78
2022-08-29T15:04:01.922Z,6.45
2022-08-29T15:06:29.430Z,7.70
2022-08-29T15:08:58.836Z,5.47
2022-08-29T15:11:26.513Z,5.53
2022-08-29T15:13:54.168Z,7.25
2022-08-29T15:16:21.775Z,5.90
2022-08-29T15:21:37.065Z,9.55
2022-08-29T15:24:05.321Z,6.22
2022-08-29T15:26:32.888Z,6.25
2022-08-29T15:29:01.800Z,6.43
2022-08-29T15:31:31.117Z,7.75
2022-08-29T15:33:58.623Z,10.52
2022-08-29T15:36:26.152Z,12.55
2022-08-29T15:38:53.679Z,18.92
2022-08-29T15:41:21.287Z,8.40
2022-08-29T15:43:48.908Z,13.05
2022-08-29T15:46:16.432Z,8.52
2022-08-29T15:48:46.027Z,13.43
2022-08-29T15:51:13.591Z,8.68
2022-08-29T15:53:41.151Z,10.80
2022-08-29T15:56:08.727Z,11.05
2022-08-29T15:58:37.097Z,8.55
2022-08-29T16:01:05.645Z,8.75
2022-08-29T16:03:33.258Z,7.97
2022-08-29T16:06:00.831Z,7.38
2022-08-29T16:08:29.795Z,7.25
2022-08-29T16:11:00.942Z,7.20
2022-08-29T16:13:28.587Z,9.10
2022-08-29T16:15:56.255Z,11.20
2022-08-29T16:18:23.845Z,10.25
2022-08-29T16:20:51.666Z,7.25
2022-08-29T16:23:25.246Z,7.10
2022-08-29T16:25:52.708Z,6.20
2022-08-29T16:28:20.204Z,6.53
2022-08-29T16:30:49.786Z,6.53
2022-08-29T16:33:17.421Z,7.30
2022-08-29T16:35:45.063Z,7.40
2022-08-29T16:38:12.698Z,7.82
2022-08-29T16:40:40.242Z,7.65
2022-08-29T16:43:08.034Z,7.60
2022-08-29T16:45:35.567Z,6.80
2022-08-29T16:48:03.164Z,13.52
2022-08-29T16:50:32.431Z,8.43
2022-08-29T16:53:02.401Z,7.88
2022-08-29T16:55:30.933Z,8.43
2022-08-29T16:58:17.487Z,8.38
2022-08-29T17:00:45.325Z,8.98
2022-08-29T17:03:14.829Z,9.27
2022-08-29T17:05:45.612Z,9.05
2022-08-29T17:08:13.124Z,14.00
2022-08-29T17:10:40.610Z,9.73
2022-08-29T17:13:09.183Z,10.27
2022-08-29T17:15:36.582Z,7.82
2022-08-29T17:18:04.112Z,10.60
2022-08-29T17:20:36.806Z,10.23
2022-08-29T17:23:04.996Z,19.65
2022-08-29T17:25:37.687Z,14.68
2022-08-29T17:28:17.774Z,19.17
2022-08-29T17:30:46.683Z,39.38
2022-08-29T17:33:14.299Z,41.85
2022-08-29T17:35:41.863Z,37.80
2022-08-29T17:38:09.743Z,28.50
2022-08-29T17:40:38.837Z,23.00
2022-08-29T17:43:08.273Z,15.30
2022-08-29T17:45:36.927Z,13.15
2022-08-29T17:48:05.234Z,14.30
2022-08-29T17:50:32.947Z,13.68
2022-08-29T17:53:00.412Z,18.85
2022-08-29T17:55:30.088Z,12.43
2022-08-29T17:57:58.810Z,10.65
2022-08-29T18:00:26.723Z,25.02
2022-08-29T18:02:54.268Z,11.82
2022-08-29T18:05:22.409Z,10.30
2022-08-29T18:07:51.477Z,15.98
2022-08-29T18:10:19.636Z,11.57
2022-08-29T18:12:47.510Z,10.60
2022-08-29T18:15:15.438Z,19.10
2022-08-29T18:17:45.291Z,13.82
2022-08-29T18:20:14.037Z,12.55
2022-08-29T18:22:43.391Z,17.08
2022-08-29T18:25:14.355Z,12.57
2022-08-29T18:27:43.895Z,14.48
2022-08-29T18:30:13.652Z,16.02
2022-08-29T18:32:41.753Z,14.55
2022-08-29T18:35:09.798Z,22.45
2022-08-29T18:37:37.348Z,13.82
2022-08-29T18:40:05.909Z,12.88
2022-08-29T18:42:41.638Z,14.80
2022-08-29T18:45:09.896Z,15.57
2022-08-29T18:47:37.559Z,15.25
2022-08-29T18:50:25.089Z,24.10
2022-08-29T18:52:53.327Z,30.95
2022-08-29T18:55:22.837Z,25.05
2022-08-29T18:57:53.354Z,17.73
2022-08-29T19:00:21.258Z,17.90
2022-08-29T19:02:49.197Z,25.15
2022-08-29T19:05:18.006Z,28.25
2022-08-29T19:07:46.044Z,24.80
2022-08-29T19:10:16.352Z,24.10
2022-08-29T19:12:44.300Z,22.30
2022-08-29T19:15:14.593Z,18.13
2022-08-29T19:17:42.967Z,22.90
2022-08-29T19:20:29.804Z,17.67
2022-08-29T19:22:57.310Z,16.05
2022-08-29T19:25:24.860Z,21.30
2022-08-29T19:27:52.419Z,24.52
2022-08-29T19:30:20.388Z,16.17
2022-08-29T19:32:48.061Z,12.60
2022-08-29T19:35:15.785Z,14.48
2022-08-29T19:37:44.884Z,13.98
2022-08-29T19:40:13.249Z,11.50
2022-08-29T19:42:42.302Z,11.95
2022-08-29T19:45:11.185Z,16.05
2022-08-29T19:47:41.149Z,12.18
2022-08-29T19:50:10.151Z,12.85
2022-08-29T19:52:37.674Z,13.73
2022-08-29T19:55:06.407Z,15.40
2022-08-29T19:57:33.853Z,56.47
2022-08-29T20:00:01.623Z,21.60
2022-08-29T20:02:40.857Z,13.98
2022-08-29T20:05:08.985Z,11.73
2022-08-29T20:07:38.177Z,14.10
2022-08-29T20:10:07.890Z,12.88
2022-08-29T20:12:37.084Z,12.55
2022-08-29T20:15:10.260Z,10.95
2022-08-29T20:17:40.505Z,12.15
2022-08-29T20:20:11.015Z,11.77
2022-08-29T20:22:38.551Z,12.63
2022-08-29T20:25:09.665Z,23.08
2022-08-29T20:27:37.733Z,12.38
2022-08-29T20:30:10.360Z,10.38
2022-08-29T20:32:38.563Z,10.63
2022-08-29T20:35:06.583Z,18.75
2022-08-29T20:37:34.142Z,21.80
2022-08-29T20:40:01.688Z,16.95
2022-08-29T20:42:30.485Z,12.40
2022-08-29T20:45:00.027Z,18.20
2022-08-29T20:47:28.752Z,17.80
2022-08-29T20:49:56.848Z,12.35
2022-08-29T20:52:24.447Z,13.43
2022-08-29T20:54:52.223Z,10.75
2022-08-29T20:57:20.544Z,13.43
2022-08-29T20:59:48.045Z,51.78
2022-08-29T21:02:15.664Z,39.45
2022-08-29T21:05:01.814Z,10.63
2022-08-29T21:07:29.446Z,12.18
2022-08-29T21:09:57.967Z,11.52
2022-08-29T21:12:27.717Z,11.10
2022-08-29T21:14:55.253Z,10.52
2022-08-29T21:17:23.031Z,11.10
2022-08-29T21:19:50.691Z,11.23
2022-08-29T21:22:20.707Z,11.50
2022-08-29T21:24:51.804Z,11.88
2022-08-29T21:27:19.383Z,11.88
2022-08-29T21:29:47.121Z,12.48
2022-08-29T21:32:14.688Z,13.25
2022-08-29T21:34:42.971Z,11.30
2022-08-29T21:37:10.689Z,10.55
2022-08-29T21:39:38.228Z,10.40
2022-08-29T21:42:05.911Z,10.75
2022-08-29T21:44:33.407Z,9.57
2022-08-29T21:47:01.161Z,9.30
2022-08-29T21:49:30.521Z,11.75
2022-08-29T21:51:58.109Z,10.13
2022-08-29T21:54:25.751Z,11.45
2022-08-29T21:56:53.260Z,11.05
2022-08-29T21:59:22.107Z,10.18
2022-08-29T22:01:59.017Z,10.57
2022-08-29T22:04:28.240Z,12.15
2022-08-29T22:06:57.389Z,10.45
2022-08-29T22:09:25.745Z,9.88
2022-08-29T22:11:53.244Z,10.85
2022-08-29T22:14:20.960Z,10.48
2022-08-29T22:16:48.559Z,10.90
2022-08-29T22:19:16.901Z,10.52
2022-08-29T22:21:47.272Z,10.50
2022-08-29T22:24:15.911Z,11.35
2022-08-29T22:26:43.823Z,10.35
2022-08-29T22:29:13.705Z,13.05
2022-08-29T22:31:42.548Z,10.70
2022-08-29T22:34:11.358Z,10.10
2022-08-29T22:36:38.941Z,10.45
2022-08-29T22:39:06.847Z,9.82
2022-08-29T22:41:34.424Z,10.88
2022-08-29T22:44:42.477Z,11.07
2022-08-29T22:46:50.135Z,10.25
2022-08-29T22:49:19.178Z,15.90
2022-08-29T22:51:48.253Z,19.38
2022-08-29T22:54:36.796Z,13.23
2022-08-29T22:57:06.131Z,10.82
2022-08-29T22:59:34.274Z,10.95
2022-08-29T23:02:01.852Z,11.20
2022-08-29T23:04:29.949Z,10.80
2022-08-29T23:06:57.540Z,12.57
2022-08-29T23:09:25.176Z,18.60
2022-08-29T23:11:52.652Z,11.30
2022-08-29T23:14:20.955Z,10.65
2022-08-29T23:16:48.881Z,17.70
2022-08-29T23:19:16.489Z,10.70
2022-08-29T23:21:44.009Z,13.63
2022-08-29T23:24:11.623Z,13.23
2022-08-29T23:26:39.110Z,10.70
2022-08-29T23:29:06.627Z,14.80
2022-08-29T23:31:34.252Z,12.35
2022-08-29T23:34:02.040Z,14.75
2022-08-29T23:36:29.505Z,10.63
2022-08-29T23:38:57.004Z,10.90
2022-08-29T23:41:25.461Z,10.57
2022-08-29T23:43:53.021Z,12.13
2022-08-29T23:46:20.921Z,12.80
2022-08-29T23:48:48.468Z,11.10
2022-08-29T23:51:16.079Z,10.85
2022-08-29T23:53:44.457Z,11.25
2022-08-29T23:56:13.337Z,14.35
2022-08-29T23:58:41.368Z,19.50
